Thunder radar more information blitzortung!


Radar de pluja more information rain snow radar


Visita la nostra xarxa de llocs de meteo:

Template documentation
and downloads

And another site



No particular awareness of the weather is required.    There are no Weather-warnings

Pagina Historial Weather Underground text

Diari Resum Agost 11, 2017 Unitats:  Imperial    Mètric   Tant
« Previous Dia
SegĂźent Dia »
Diari Setmana Mensual Anual Personalitzada
  Maxima: Minima: Media:
Temperatura: TemperatureC °F 15.3 °F 21.9 °F
Punt de rosada: DewpointC °F 5.6 °F 11.5 °F
Humitat: Humidity % 32 % 52 %
Wind Speed: WindSpeedKMH mph 0.0 mph 7.1 mph
RĂ fegues de vent: WindSpeedGustKMH mph - -
Vent:- - ESE
Pression baro: PressurehPa in 1017.8 in -
Precipitacions: 0.0 in    
Historical Graphs
 
 
Dades de taula per Agost 11, 2017
Temps Temperatura Punt de rosada Pression baro Vent Wind Speed RĂ fegues de vent Humitat Rainfall Rate (Hourly)
TemperatureC °F DewpointC °F PressurehPa in Calm     Humidity % HourlyPrecipMM in
00:00 21.4 °F 10.6 °F 1018.8 in WSW 2.3 mph 2.3 mph 50 % 0.0 in
00:05 21.4 °F 10.2 °F 1018.8 in WSW 5.6 mph 5.6 mph 49 % 0.0 in
00:10 21.4 °F 10.2 °F 1018.8 in NW 5.6 mph 5.6 mph 49 % 0.0 in
00:15 21.3 °F 9.8 °F 1018.8 in North 3.7 mph 3.7 mph 48 % 0.0 in
00:20 21.3 °F 9.8 °F 1018.8 in ENE 3.7 mph 3.7 mph 48 % 0.0 in
00:25 21.2 °F 9.4 °F 1018.8 in NNE 5.0 mph 5.0 mph 47 % 0.0 in
00:30 21.2 °F 9.4 °F 1018.8 in East 3.7 mph 3.7 mph 47 % 0.0 in
00:35 21.1 °F 9.3 °F 1018.8 in ENE 3.7 mph 3.7 mph 47 % 0.0 in
00:40 20.9 °F 9.5 °F 1018.8 in ENE 2.6 mph 2.6 mph 48 % 0.0 in
00:45 20.8 °F 9.4 °F 1018.8 in East 1.9 mph   48 % 0.0 in
00:50 20.7 °F 9.3 °F 1018.8 in West 3.7 mph 3.7 mph 48 % 0.0 in
00:55 20.6 °F 9.2 °F 1018.8 in West 1.9 mph   48 % 0.0 in
01:00 20.5 °F 9.1 °F 1018.8 in West 5.6 mph 5.6 mph 48 % 0.0 in
01:05 20.4 °F 9.0 °F 1018.8 in West 9.3 mph 9.3 mph 48 % 0.0 in
01:10 20.3 °F 8.6 °F 1018.8 in WSW 7.4 mph 7.4 mph 47 % 0.0 in
01:15 20.2 °F 8.5 °F 1018.8 in NE 3.7 mph 3.7 mph 47 % 0.0 in
01:20 20.1 °F 8.4 °F 1018.8 in NNE 2.3 mph   47 % 0.0 in
01:25 20.0 °F 8.3 °F 1018.8 in Calm     47 % 0.0 in
01:30 19.8 °F 8.4 °F 1018.8 in WSW 5.6 mph 5.6 mph 48 % 0.0 in
01:40 15.4 °F 5.6 °F 1018.8 in West 3.2 mph 4.8 mph 52 % 0.0 in
01:50 15.3 °F 5.8 °F 1018.8 in WNW 1.6 mph 6.4 mph 53 % 0.0 in
02:00 15.3 °F 5.8 °F 1018.8 in West 1.6 mph 4.8 mph 53 % 0.0 in
02:10 15.3 °F 6.1 °F 1018.8 in NNE 1.6 mph 6.4 mph 54 % 0.0 in
02:20 15.3 °F 6.1 °F 1019.9 in NE 1.6 mph 3.2 mph 54 % 0.0 in
02:30 15.4 °F 6.1 °F 1019.9 in NNW 1.6 mph 4.8 mph 54 % 0.0 in
02:40 15.8 °F 6.5 °F 1019.9 in WNW 1.6 mph 3.2 mph 54 % 0.0 in
02:50 15.6 °F 6.6 °F 1019.9 in WSW 1.6 mph 4.8 mph 55 % 0.0 in
03:10 16.0 °F 6.9 °F 1019.9 in West 1.6 mph 3.2 mph 55 % 0.0 in
03:20 16.8 °F 7.7 °F 1018.8 in North 4.8 mph 8.0 mph 55 % 0.0 in
03:30 17.3 °F 7.9 °F 1018.8 in North 3.2 mph 4.8 mph 54 % 0.0 in
03:40 17.0 °F 7.3 °F 1019.9 in NE 1.6 mph 6.4 mph 53 % 0.0 in
03:50 17.2 °F 7.6 °F 1019.9 in NE 4.8 mph 8.0 mph 53 % 0.0 in
04:00 17.7 °F 8.0 °F 1019.9 in NE 1.6 mph 6.4 mph 53 % 0.0 in
04:10 18.1 °F 8.4 °F 1019.9 in NE 1.6 mph 6.4 mph 53 % 0.0 in
04:20 18.5 °F 8.7 °F 1019.9 in NE 1.6 mph 4.8 mph 53 % 0.0 in
04:30 18.6 °F 8.6 °F 1019.9 in ENE 4.8 mph 6.4 mph 52 % 0.0 in
04:40 18.8 °F 8.7 °F 1019.9 in NE 1.6 mph 4.8 mph 52 % 0.0 in
04:50 19.1 °F 8.7 °F 1019.9 in NNE 3.2 mph 4.8 mph 51 % 0.0 in
05:00 19.5 °F 8.8 °F 1019.9 in NNE 1.6 mph 4.8 mph 50 % 0.0 in
05:10 19.2 °F 8.5 °F 1019.9 in NNE 4.8 mph 8.0 mph 50 % 0.0 in
05:20 19.6 °F 8.9 °F 1018.8 in NE 4.8 mph 6.4 mph 50 % 0.0 in
05:30 19.9 °F 9.2 °F 1018.8 in ENE 4.8 mph 6.4 mph 50 % 0.0 in
10:34 20.6 °F 9.8 °F 1019.9 in ENE 5.6 mph 5.6 mph 50 % 0.0 in
10:35 20.6 °F 9.8 °F 1019.9 in ENE 5.6 mph 5.6 mph 50 % 0.0 in
10:40 20.7 °F 9.9 °F 1019.9 in SE 3.9 mph 3.9 mph 50 % 0.0 in
10:45 21.1 °F 9.9 °F 1019.9 in ENE 7.9 mph 7.9 mph 49 % 0.0 in
10:50 21.2 °F 10.1 °F 1019.9 in WNW 4.7 mph 4.7 mph 49 % 0.0 in
10:55 21.5 °F 10.0 °F 1019.9 in ENE 3.9 mph 3.9 mph 48 % 0.0 in
11:00 21.0 °F 9.6 °F 1019.9 in ESE 3.9 mph 3.9 mph 48 % 0.0 in
11:05 20.9 °F 9.8 °F 1019.9 in ENE 13.0 mph 13.0 mph 49 % 0.0 in
11:10 21.0 °F 9.6 °F 1019.9 in ESE 7.4 mph 7.4 mph 48 % 0.0 in
11:15 21.8 °F 10.3 °F 1018.8 in ENE 4.7 mph 4.7 mph 48 % 0.0 in
11:20 21.0 °F 9.3 °F 1018.8 in ESE 9.3 mph 9.3 mph 47 % 0.0 in
11:25 21.6 °F 10.1 °F 1018.8 in ESE 7.4 mph 7.4 mph 48 % 0.0 in
11:30 22.2 °F 10.3 °F 1019.9 in South 5.6 mph 5.6 mph 47 % 0.0 in
11:35 22.8 °F 10.9 °F 1019.9 in SSE 5.6 mph 5.6 mph 47 % 0.0 in
11:40 22.6 °F 10.1 °F 1019.9 in SSE 9.3 mph 9.3 mph 45 % 0.0 in
11:45 22.5 °F 10.3 °F 1019.9 in NE 3.7 mph 3.7 mph 46 % 0.0 in
11:50 22.3 °F 9.8 °F 1019.9 in East 6.9 mph 6.9 mph 45 % 0.0 in
11:55 22.5 °F 9.9 °F 1019.9 in ENE 7.4 mph 7.4 mph 45 % 0.0 in
12:00 23.2 °F 10.6 °F 1019.9 in West 5.6 mph 5.6 mph 45 % 0.0 in
12:05 23.1 °F 10.2 °F 1019.9 in ESE 7.4 mph 7.4 mph 44 % 0.0 in
12:10 23.2 °F 10.3 °F 1019.9 in NNW 3.7 mph 3.7 mph 44 % 0.0 in
12:15 23.7 °F 10.7 °F 1019.9 in ENE 3.7 mph 3.7 mph 44 % 0.0 in
12:20 24.0 °F 10.3 °F 1019.9 in South 6.4 mph 6.4 mph 42 % 0.0 in
12:25 24.0 °F 10.3 °F 1019.9 in SSE 9.3 mph 9.3 mph 42 % 0.0 in
12:30 24.1 °F 10.7 °F 1018.8 in SW 7.4 mph 7.4 mph 43 % 0.0 in
12:35 24.2 °F 10.5 °F 1018.8 in SW 7.4 mph 7.4 mph 42 % 0.0 in
12:40 23.7 °F 10.0 °F 1018.8 in WNW 7.4 mph 7.4 mph 42 % 0.0 in
12:45 24.3 °F 10.2 °F 1019.9 in WSW 4.7 mph 4.7 mph 41 % 0.0 in
12:50 24.6 °F 10.4 °F 1019.9 in NW 5.6 mph 5.6 mph 41 % 0.0 in
12:55 24.6 °F 10.4 °F 1019.9 in SSW 1.9 mph   41 % 0.0 in
13:00 25.7 °F 11.1 °F 1019.9 in SW 5.8 mph 5.8 mph 40 % 0.0 in
13:05 26.1 °F 11.4 °F 1019.9 in South 7.4 mph 7.4 mph 40 % 0.0 in
13:10 26.6 °F 11.1 °F 1019.9 in South 11.1 mph 11.1 mph 38 % 0.0 in
13:15 26.5 °F 11.0 °F 1019.9 in SSE 5.6 mph 5.6 mph 38 % 0.0 in
13:20 26.5 °F 11.0 °F 1019.9 in SSE 5.6 mph 5.6 mph 38 % 0.0 in
13:25 26.5 °F 10.6 °F 1019.9 in East 5.3 mph 5.3 mph 37 % 0.0 in
13:30 27.0 °F 10.7 °F 1018.8 in SSW 9.3 mph 9.3 mph 36 % 0.0 in
13:35 26.0 °F 8.9 °F 1018.8 in SW 9.3 mph 9.3 mph 34 % 0.0 in
13:40 26.3 °F 9.2 °F 1018.8 in ESE 9.5 mph 9.5 mph 34 % 0.0 in
13:45 26.7 °F 9.9 °F 1018.8 in SE 5.6 mph 5.6 mph 35 % 0.0 in
13:50 26.8 °F 8.7 °F 1018.8 in SSE 9.3 mph 9.3 mph 32 % 0.0 in
13:55 26.3 °F 8.7 °F 1018.8 in North 9.3 mph 9.3 mph 33 % 0.0 in
14:00 26.6 °F 9.0 °F 1018.8 in SW 9.3 mph 9.3 mph 33 % 0.0 in
14:05 27.0 °F 8.9 °F 1018.8 in SSE 5.6 mph 5.6 mph 32 % 0.0 in
14:10 27.4 °F 9.2 °F 1018.8 in South 7.4 mph 7.4 mph 32 % 0.0 in
14:15 27.5 °F 9.3 °F 1018.8 in ESE 7.6 mph 7.6 mph 32 % 0.0 in
14:20 27.5 °F 9.3 °F 1018.8 in SSW 7.4 mph 7.4 mph 32 % 0.0 in
14:25 27.1 °F 9.0 °F 1018.8 in ESE 13.0 mph 13.0 mph 32 % 0.0 in
14:30 26.2 °F 8.7 °F 1018.8 in ENE 9.3 mph 9.3 mph 33 % 0.0 in
14:35 26.3 °F 9.6 °F 1018.8 in SE 11.1 mph 11.1 mph 35 % 0.0 in
14:40 26.3 °F 10.8 °F 1018.8 in South 13.0 mph 13.0 mph 38 % 0.0 in
14:45 26.2 °F 11.2 °F 1018.8 in ENE 24.1 mph 24.1 mph 39 % 0.0 in
14:50 25.9 °F 10.9 °F 1018.8 in SSE 14.8 mph 14.8 mph 39 % 0.0 in
14:55 26.2 °F 11.6 °F 1018.8 in ESE 11.1 mph 11.1 mph 40 % 0.0 in
15:00 26.4 °F 11.7 °F 1018.8 in WSW 16.7 mph 16.7 mph 40 % 0.0 in
15:05 26.0 °F 11.7 °F 1018.8 in SW 9.3 mph 9.3 mph 41 % 0.0 in
15:10 26.5 °F 12.2 °F 1018.8 in SSE 13.0 mph 13.0 mph 41 % 0.0 in
15:11 26.3 °F 12.0 °F 1018.8 in South 13.0 mph 13.0 mph 41 % 0.0 in
15:16 25.7 °F 11.8 °F 1017.8 in East 14.0 mph 14.0 mph 42 % 0.0 in
15:21 25.9 °F 12.0 °F 1017.8 in South 11.1 mph 11.1 mph 42 % 0.0 in
15:26 25.8 °F 12.3 °F 1017.8 in ESE 9.3 mph 9.3 mph 43 % 0.0 in
15:27 25.8 °F 12.3 °F 1017.8 in East 9.7 mph 9.7 mph 43 % 0.0 in
15:32 25.1 °F 11.6 °F 1017.8 in ESE 18.5 mph 18.5 mph 43 % 0.0 in
15:37 24.8 °F 11.7 °F 1017.8 in ESE 9.3 mph 9.3 mph 44 % 0.0 in
15:42 24.6 °F 11.6 °F 1017.8 in SE 11.1 mph 11.1 mph 44 % 0.0 in
15:47 24.6 °F 11.9 °F 1018.8 in ENE 22.2 mph 22.2 mph 45 % 0.0 in
15:52 24.6 °F 12.2 °F 1018.8 in East 14.8 mph 14.8 mph 46 % 0.0 in
15:57 24.6 °F 12.2 °F 1018.8 in ESE 13.0 mph 13.0 mph 46 % 0.0 in
15:58 24.6 °F 12.2 °F 1018.8 in SE 9.3 mph 9.3 mph 46 % 0.0 in
16:03 24.6 °F 12.2 °F 1017.8 in SE 12.6 mph 12.6 mph 46 % 0.0 in
16:08 24.3 °F 12.3 °F 1017.8 in South 14.8 mph 14.8 mph 47 % 0.0 in
16:13 24.4 °F 12.3 °F 1017.8 in ENE 5.6 mph 5.8 mph 47 % 0.0 in
16:18 24.1 °F 12.1 °F 1017.8 in ESE 14.8 mph 14.8 mph 47 % 0.0 in
16:23 23.9 °F 12.2 °F 1017.8 in ESE 13.0 mph 13.0 mph 48 % 0.0 in
16:24 23.9 °F 12.2 °F 1017.8 in SE 16.7 mph 16.7 mph 48 % 0.0 in
16:29 24.0 °F 12.3 °F 1017.8 in SSE 9.3 mph 9.3 mph 48 % 0.0 in
16:34 24.0 °F 12.3 °F 1017.8 in South 11.1 mph 11.1 mph 48 % 0.0 in
16:39 24.1 °F 12.4 °F 1017.8 in East 5.6 mph 5.6 mph 48 % 0.0 in
16:44 24.2 °F 12.5 °F 1017.8 in SSE 11.1 mph 11.1 mph 48 % 0.0 in
16:49 24.1 °F 12.4 °F 1017.8 in ESE 9.0 mph 9.0 mph 48 % 0.0 in
16:54 23.9 °F 12.2 °F 1017.8 in SE 7.4 mph 7.4 mph 48 % 0.0 in
16:59 23.9 °F 12.6 °F 1017.8 in ESE 11.1 mph 11.1 mph 49 % 0.0 in
17:04 23.9 °F 12.6 °F 1017.8 in SSE 11.4 mph 11.4 mph 49 % 0.0 in
17:09 23.9 °F 12.6 °F 1017.8 in SW 7.4 mph 7.4 mph 49 % 0.0 in
17:14 23.9 °F 12.6 °F 1017.8 in ESE 5.6 mph 5.6 mph 49 % 0.0 in
17:19 24.0 °F 12.6 °F 1017.8 in East 4.7 mph 4.7 mph 49 % 0.0 in
17:24 24.1 °F 12.7 °F 1017.8 in SW 5.6 mph 5.6 mph 49 % 0.0 in
17:29 24.0 °F 12.9 °F 1017.8 in ESE 5.6 mph 5.8 mph 50 % 0.0 in
17:34 23.7 °F 12.7 °F 1017.8 in NE 13.0 mph 13.0 mph 50 % 0.0 in
17:39 23.9 °F 12.8 °F 1017.8 in ESE 11.9 mph 11.9 mph 50 % 0.0 in
17:44 24.0 °F 12.9 °F 1017.8 in SSE 9.3 mph 9.3 mph 50 % 0.0 in
17:49 23.9 °F 12.8 °F 1018.8 in ESE 11.1 mph 11.1 mph 50 % 0.0 in
17:54 23.9 °F 12.8 °F 1018.8 in ESE 11.1 mph 11.1 mph 50 % 0.0 in
17:59 23.9 °F 12.8 °F 1017.8 in ESE 12.6 mph 12.6 mph 50 % 0.0 in
18:04 24.0 °F 12.9 °F 1017.8 in ESE 13.0 mph 13.0 mph 50 % 0.0 in
18:09 24.0 °F 12.9 °F 1017.8 in ESE 11.1 mph 11.1 mph 50 % 0.0 in
18:14 23.9 °F 12.8 °F 1017.8 in South 9.3 mph 9.3 mph 50 % 0.0 in
18:19 23.6 °F 12.6 °F 1018.8 in ESE 14.8 mph 14.8 mph 50 % 0.0 in
18:24 23.7 °F 12.7 °F 1018.8 in SSE 6.1 mph 6.4 mph 50 % 0.0 in
18:29 23.7 °F 12.7 °F 1018.8 in South 9.3 mph 9.3 mph 50 % 0.0 in
18:34 23.5 °F 12.5 °F 1018.8 in NE 11.1 mph 11.1 mph 50 % 0.0 in
18:39 23.3 °F 12.3 °F 1018.8 in ESE 14.8 mph 14.8 mph 50 % 0.0 in
18:44 23.3 °F 12.3 °F 1017.8 in ESE 11.1 mph 11.1 mph 50 % 0.0 in
18:49 23.4 °F 12.7 °F 1017.8 in East 19.0 mph 19.0 mph 51 % 0.0 in
18:54 23.3 °F 12.9 °F 1017.8 in East 14.8 mph 14.8 mph 52 % 0.0 in
18:59 23.1 °F 13.0 °F 1017.8 in ESE 16.4 mph 16.4 mph 53 % 0.0 in
19:04 23.0 °F 13.4 °F 1018.8 in SE 14.8 mph 14.8 mph 55 % 0.0 in
19:09 22.9 °F 13.4 °F 1018.8 in ESE 13.0 mph 13.0 mph 55 % 0.0 in
19:14 22.8 °F 13.6 °F 1018.8 in ESE 14.8 mph 14.8 mph 56 % 0.0 in
19:19 23.0 °F 13.4 °F 1017.8 in East 9.3 mph 9.3 mph 55 % 0.0 in
19:20 19.8 °F 13.3 °F 1021.9 in NE 3.2 mph 3.2 mph 66 % 0.0 in
19:24 23.0 °F 13.4 °F 1017.8 in SSE 5.8 mph 5.8 mph 55 % 0.0 in
19:26 22.9 °F 13.4 °F 1017.8 in South 13.0 mph 13.0 mph 55 % 0.0 in
19:30 19.7 °F 13.4 °F 1021.9 in NE 3.2 mph 4.8 mph 67 % 0.0 in
19:31 22.8 °F 13.3 °F 1018.8 in SE 9.3 mph 9.3 mph 55 % 0.0 in
19:36 22.8 °F 13.3 °F 1018.8 in ESE 10.0 mph 10.0 mph 55 % 0.0 in
19:40 19.7 °F 13.4 °F 1020.9 in NNE 3.2 mph 4.8 mph 67 % 0.0 in
19:41 22.7 °F 13.2 °F 1018.8 in SSE 9.3 mph 9.3 mph 55 % 0.0 in
19:46 22.6 °F 13.4 °F 1018.8 in SSE 13.7 mph 13.7 mph 56 % 0.0 in
19:50 19.6 °F 13.6 °F 1021.9 in NNE 3.2 mph 4.8 mph 68 % 0.0 in
19:51 22.6 °F 13.4 °F 1018.8 in ESE 7.4 mph 7.4 mph 56 % 0.0 in
19:56 22.5 °F 13.3 °F 1018.8 in SE 15.8 mph 15.8 mph 56 % 0.0 in
20:00 19.6 °F 13.8 °F 1021.9 in NE 3.2 mph 4.8 mph 69 % 0.0 in
20:01 22.3 °F 13.4 °F 1018.8 in ESE 13.0 mph 13.0 mph 57 % 0.0 in
20:06 22.2 °F 13.3 °F 1018.8 in ESE 11.1 mph 11.1 mph 57 % 0.0 in
20:10 19.6 °F 13.8 °F 1021.9 in NNE 1.6 mph 3.2 mph 69 % 0.0 in
20:11 22.2 °F 13.3 °F 1018.8 in ESE 3.7 mph 4.7 mph 57 % 0.0 in
20:16 22.2 °F 13.6 °F 1018.8 in ESE 7.4 mph 7.4 mph 58 % 0.0 in
20:20 19.5 °F 13.7 °F 1021.9 in NNE 3.2 mph 3.2 mph 69 % 0.0 in
20:21 22.1 °F 13.2 °F 1018.8 in ESE 11.1 mph 11.1 mph 57 % 0.0 in
20:26 22.0 °F 13.1 °F 1018.8 in ESE 10.0 mph 10.0 mph 57 % 0.0 in
20:30 19.3 °F 13.7 °F 1021.9 in NNE 1.6 mph 3.2 mph 70 % 0.0 in
20:31 22.0 °F 13.3 °F 1018.8 in ESE 13.0 mph 13.0 mph 58 % 0.0 in
20:36 21.9 °F 13.5 °F 1018.8 in ENE 7.4 mph 7.4 mph 59 % 0.0 in
20:40 19.2 °F 13.6 °F 1020.9 in NNE 1.6 mph 3.2 mph 70 % 0.0 in
20:41 21.9 °F 13.5 °F 1018.8 in ENE 15.8 mph 15.8 mph 59 % 0.0 in
20:46 21.8 °F 13.4 °F 1018.8 in ESE 14.8 mph 14.8 mph 59 % 0.0 in
20:50 19.1 °F 13.7 °F 1020.9 in Calm   1.6 mph 71 % 0.0 in
20:51 21.7 °F 13.3 °F 1018.8 in East 11.1 mph 11.1 mph 59 % 0.0 in
20:56 21.7 °F 13.3 °F 1018.8 in ESE 9.3 mph 9.3 mph 59 % 0.0 in
21:00 19.0 °F 13.6 °F 1020.9 in Calm   1.6 mph 71 % 0.0 in
21:01 21.7 °F 13.3 °F 1019.9 in ESE 11.4 mph 11.4 mph 59 % 0.0 in
21:06 21.6 °F 13.5 °F 1019.9 in ESE 9.3 mph 9.3 mph 60 % 0.0 in
21:10 18.8 °F 13.7 °F 1020.9 in Calm   1.6 mph 72 % 0.0 in
21:11 21.5 °F 13.4 °F 1019.9 in ESE 9.3 mph 9.3 mph 60 % 0.0 in
21:16 21.5 °F 13.4 °F 1019.9 in NE 11.1 mph 11.1 mph 60 % 0.0 in
21:20 18.8 °F 13.8 °F 1020.9 in Calm     73 % 0.0 in
21:21 21.6 °F 13.5 °F 1019.9 in East 5.8 mph 5.8 mph 60 % 0.0 in
21:26 21.5 °F 13.7 °F 1019.9 in SE 9.7 mph 9.7 mph 61 % 0.0 in
21:30 18.8 °F 13.8 °F 1020.9 in NNE 3.2 mph 3.2 mph 73 % 0.0 in
21:31 21.5 °F 13.7 °F 1018.8 in ESE 5.8 mph 5.8 mph 61 % 0.0 in
21:36 21.5 °F 13.7 °F 1018.8 in SE 6.1 mph 6.1 mph 61 % 0.0 in
21:40 18.8 °F 13.8 °F 1020.9 in NNE 3.2 mph 4.8 mph 73 % 0.0 in
21:41 21.5 °F 13.7 °F 1018.8 in SE 5.6 mph 5.6 mph 61 % 0.0 in
21:46 21.4 °F 13.6 °F 1019.9 in ESE 9.3 mph 9.3 mph 61 % 0.0 in
21:50 18.7 °F 13.8 °F 1019.9 in NNE 3.2 mph 3.2 mph 73 % 0.0 in
21:51 21.4 °F 13.6 °F 1019.9 in ENE 5.6 mph 5.6 mph 61 % 0.0 in
21:56 21.4 °F 13.6 °F 1019.9 in ESE 11.1 mph 11.1 mph 61 % 0.0 in
22:00 18.6 °F 13.7 °F 1019.9 in NNE 1.6 mph 3.2 mph 73 % 0.0 in
22:01 21.3 °F 13.4 °F 1019.9 in NE 9.3 mph 9.3 mph 61 % 0.0 in
22:06 21.2 °F 13.4 °F 1019.9 in ESE 7.4 mph 7.4 mph 61 % 0.0 in
22:10 18.6 °F 13.7 °F 1020.9 in Calm   3.2 mph 73 % 0.0 in
22:11 21.2 °F 13.4 °F 1019.9 in East 9.3 mph 9.3 mph 61 % 0.0 in
22:16 21.2 °F 13.6 °F 1019.9 in East 5.3 mph 5.3 mph 62 % 0.0 in
22:20 18.4 °F 13.7 °F 1020.9 in Calm     74 % 0.0 in
22:21 21.1 °F 13.6 °F 1019.9 in ESE 5.6 mph 5.6 mph 62 % 0.0 in
22:26 21.1 °F 13.6 °F 1019.9 in ESE 6.1 mph 6.1 mph 62 % 0.0 in
22:30 18.3 °F 13.6 °F 1020.9 in Calm     74 % 0.0 in
22:31 21.0 °F 13.4 °F 1019.9 in ENE 4.7 mph 4.7 mph 62 % 0.0 in
22:36 21.0 °F 13.4 °F 1019.9 in ESE 7.4 mph 7.4 mph 62 % 0.0 in
22:38 21.0 °F 13.4 °F 1019.9 in SE 5.6 mph 5.6 mph 62 % 0.0 in
22:40 18.4 °F 13.9 °F 1020.9 in Calm   3.2 mph 75 % 0.0 in
22:43 20.9 °F 13.3 °F 1019.9 in ESE 5.6 mph 5.6 mph 62 % 0.0 in
22:48 20.8 °F 13.3 °F 1019.9 in ENE 3.7 mph 3.7 mph 62 % 0.0 in
22:50 18.4 °F 13.9 °F 1020.9 in Calm   3.2 mph 75 % 0.0 in
22:53 20.7 °F 13.2 °F 1019.9 in NE 3.7 mph 3.7 mph 62 % 0.0 in
22:58 20.6 °F 12.8 °F 1019.9 in ENE 7.4 mph 7.4 mph 61 % 0.0 in
23:00 18.4 °F 13.9 °F 1020.9 in NNE 1.6 mph 1.6 mph 75 % 0.0 in
23:03 20.5 °F 12.7 °F 1020.9 in ENE 1.9 mph 1.9 mph 61 % 0.0 in
23:08 20.5 °F 12.9 °F 1020.9 in NE 3.7 mph 3.7 mph 62 % 0.0 in
23:10 18.3 °F 13.8 °F 1019.9 in NNE 1.6 mph 3.2 mph 75 % 0.0 in
23:13 20.4 °F 13.1 °F 1020.9 in ENE 3.7 mph 3.7 mph 63 % 0.0 in
23:18 20.4 °F 13.1 °F 1020.9 in East 5.6 mph 5.6 mph 63 % 0.0 in
23:20 18.3 °F 13.8 °F 1019.9 in NNE 1.6 mph 3.2 mph 75 % 0.0 in
23:23 20.2 °F 12.9 °F 1020.9 in ENE 3.7 mph 3.7 mph 63 % 0.0 in
23:28 20.2 °F 12.9 °F 1020.9 in ENE 3.7 mph 3.7 mph 63 % 0.0 in
23:30 18.1 °F 13.6 °F 1019.9 in NNE 1.6 mph 3.2 mph 75 % 0.0 in
23:33 20.1 °F 12.8 °F 1020.9 in NE 3.7 mph 3.7 mph 63 % 0.0 in
23:38 20.1 °F 12.8 °F 1020.9 in ENE 3.7 mph 3.7 mph 63 % 0.0 in
23:40 18.0 °F 13.7 °F 1019.9 in NNE 1.6 mph 3.2 mph 76 % 0.0 in
23:43 20.1 °F 12.8 °F 1020.9 in NE 4.7 mph 4.7 mph 63 % 0.0 in
23:48 20.0 °F 12.7 °F 1020.9 in NNE 3.9 mph 3.9 mph 63 % 0.0 in
23:50 17.9 °F 13.6 °F 1019.9 in Calm   1.6 mph 76 % 0.0 in
23:53 20.1 °F 12.8 °F 1020.9 in ENE 3.9 mph 3.9 mph 63 % 0.0 in
23:58 20.1 °F 12.8 °F 1020.9 in NNE 3.9 mph 3.9 mph 63 % 0.0 in
Meteo Sesrovires
Elogis d' Weather Underground - 2 mb

Guio original per  Jim McMurry - jmcmurry@mwt.net Adaptat per a la plantilla per  Wim van der Kuil - Leuven-Template.eu

Trobareu la nostra informacio del temps tambe a:

Weather Underground

AWEKAS